sensor_id;sensor_type;location;lat;lon;timestamp;P1;durP1;ratioP1;P2;durP2;ratioP2
15913;SDS011;8055;51.930;8.840;2023-04-24T00:00:05;1.00;;;0.90;;
15913;SDS011;8055;51.930;8.840;2023-04-24T00:02:32;1.15;;;0.68;;
15913;SDS011;8055;51.930;8.840;2023-04-24T00:04:58;0.82;;;0.65;;
15913;SDS011;8055;51.930;8.840;2023-04-24T00:07:27;0.70;;;0.70;;
15913;SDS011;8055;51.930;8.840;2023-04-24T00:09:53;1.33;;;0.60;;
15913;SDS011;8055;51.930;8.840;2023-04-24T00:12:19;1.05;;;0.50;;
15913;SDS011;8055;51.930;8.840;2023-04-24T00:14:45;1.45;;;0.60;;
15913;SDS011;8055;51.930;8.840;2023-04-24T00:17:10;1.95;;;0.85;;
15913;SDS011;8055;51.930;8.840;2023-04-24T00:19:35;0.88;;;0.63;;
15913;SDS011;8055;51.930;8.840;2023-04-24T00:22:01;1.23;;;0.70;;
15913;SDS011;8055;51.930;8.840;2023-04-24T00:24:27;1.00;;;0.60;;
15913;SDS011;8055;51.930;8.840;2023-04-24T00:26:52;1.45;;;0.70;;
15913;SDS011;8055;51.930;8.840;2023-04-24T00:29:18;2.28;;;0.60;;
15913;SDS011;8055;51.930;8.840;2023-04-24T00:31:43;3.30;;;0.50;;
15913;SDS011;8055;51.930;8.840;2023-04-24T00:34:09;0.57;;;0.57;;
15913;SDS011;8055;51.930;8.840;2023-04-24T00:36:35;1.33;;;0.80;;
15913;SDS011;8055;51.930;8.840;2023-04-24T00:39:00;2.03;;;0.60;;
15913;SDS011;8055;51.930;8.840;2023-04-24T00:41:26;0.60;;;0.60;;
15913;SDS011;8055;51.930;8.840;2023-04-24T00:43:52;1.10;;;0.77;;
15913;SDS011;8055;51.930;8.840;2023-04-24T00:46:18;1.00;;;0.68;;
15913;SDS011;8055;51.930;8.840;2023-04-24T00:48:44;1.25;;;0.60;;
15913;SDS011;8055;51.930;8.840;2023-04-24T00:51:10;0.80;;;0.70;;
15913;SDS011;8055;51.930;8.840;2023-04-24T00:53:35;1.67;;;0.70;;
15913;SDS011;8055;51.930;8.840;2023-04-24T00:56:01;0.60;;;0.60;;
15913;SDS011;8055;51.930;8.840;2023-04-24T00:58:27;0.82;;;0.55;;
15913;SDS011;8055;51.930;8.840;2023-04-24T01:00:53;1.98;;;0.68;;
15913;SDS011;8055;51.930;8.840;2023-04-24T01:03:20;1.30;;;0.80;;
15913;SDS011;8055;51.930;8.840;2023-04-24T01:05:47;1.10;;;0.68;;
15913;SDS011;8055;51.930;8.840;2023-04-24T01:08:14;0.60;;;0.60;;
15913;SDS011;8055;51.930;8.840;2023-04-24T01:10:40;0.70;;;0.70;;
15913;SDS011;8055;51.930;8.840;2023-04-24T01:13:07;1.42;;;0.70;;
15913;SDS011;8055;51.930;8.840;2023-04-24T01:15:33;0.65;;;0.65;;
15913;SDS011;8055;51.930;8.840;2023-04-24T01:17:59;1.02;;;0.65;;
15913;SDS011;8055;51.930;8.840;2023-04-24T01:20:25;1.08;;;0.70;;
15913;SDS011;8055;51.930;8.840;2023-04-24T01:22:51;0.90;;;0.90;;
15913;SDS011;8055;51.930;8.840;2023-04-24T01:25:17;1.58;;;0.60;;
15913;SDS011;8055;51.930;8.840;2023-04-24T01:27:42;3.58;;;0.63;;
15913;SDS011;8055;51.930;8.840;2023-04-24T01:30:08;0.68;;;0.60;;
15913;SDS011;8055;51.930;8.840;2023-04-24T01:32:34;0.63;;;0.52;;
15913;SDS011;8055;51.930;8.840;2023-04-24T01:35:01;0.50;;;0.50;;
15913;SDS011;8055;51.930;8.840;2023-04-24T01:37:27;1.42;;;0.82;;
15913;SDS011;8055;51.930;8.840;2023-04-24T01:39:52;0.82;;;0.60;;
15913;SDS011;8055;51.930;8.840;2023-04-24T01:42:17;0.40;;;0.40;;
15913;SDS011;8055;51.930;8.840;2023-04-24T01:44:43;0.52;;;0.52;;
15913;SDS011;8055;51.930;8.840;2023-04-24T01:47:08;0.98;;;0.77;;
15913;SDS011;8055;51.930;8.840;2023-04-24T01:49:34;1.38;;;0.63;;
15913;SDS011;8055;51.930;8.840;2023-04-24T01:51:59;0.75;;;0.60;;
15913;SDS011;8055;51.930;8.840;2023-04-24T01:54:25;1.85;;;0.60;;
15913;SDS011;8055;51.930;8.840;2023-04-24T01:56:51;0.60;;;0.60;;
15913;SDS011;8055;51.930;8.840;2023-04-24T01:59:16;0.77;;;0.77;;
15913;SDS011;8055;51.930;8.840;2023-04-24T02:01:42;0.85;;;0.60;;
15913;SDS011;8055;51.930;8.840;2023-04-24T02:04:08;0.75;;;0.75;;
15913;SDS011;8055;51.930;8.840;2023-04-24T02:06:33;1.25;;;0.98;;
15913;SDS011;8055;51.930;8.840;2023-04-24T02:08:59;1.48;;;0.80;;
15913;SDS011;8055;51.930;8.840;2023-04-24T02:11:25;1.23;;;0.90;;
15913;SDS011;8055;51.930;8.840;2023-04-24T02:13:51;1.05;;;0.90;;
15913;SDS011;8055;51.930;8.840;2023-04-24T02:16:17;0.82;;;0.73;;
15913;SDS011;8055;51.930;8.840;2023-04-24T02:18:43;0.80;;;0.80;;
15913;SDS011;8055;51.930;8.840;2023-04-24T02:21:08;0.95;;;0.70;;
15913;SDS011;8055;51.930;8.840;2023-04-24T02:23:34;0.73;;;0.70;;
15913;SDS011;8055;51.930;8.840;2023-04-24T02:25:59;1.08;;;0.60;;
15913;SDS011;8055;51.930;8.840;2023-04-24T02:28:25;0.65;;;0.60;;
15913;SDS011;8055;51.930;8.840;2023-04-24T02:30:50;2.40;;;0.70;;
15913;SDS011;8055;51.930;8.840;2023-04-24T02:33:16;1.67;;;0.60;;
15913;SDS011;8055;51.930;8.840;2023-04-24T02:35:41;1.23;;;0.60;;
15913;SDS011;8055;51.930;8.840;2023-04-24T02:38:06;1.92;;;0.63;;
15913;SDS011;8055;51.930;8.840;2023-04-24T02:40:32;2.50;;;0.88;;
15913;SDS011;8055;51.930;8.840;2023-04-24T02:42:57;3.92;;;0.70;;
15913;SDS011;8055;51.930;8.840;2023-04-24T02:45:23;1.52;;;0.60;;
15913;SDS011;8055;51.930;8.840;2023-04-24T02:47:48;1.40;;;0.70;;
15913;SDS011;8055;51.930;8.840;2023-04-24T02:50:13;1.45;;;0.65;;
15913;SDS011;8055;51.930;8.840;2023-04-24T02:52:39;1.67;;;0.70;;
15913;SDS011;8055;51.930;8.840;2023-04-24T02:55:04;1.00;;;0.70;;
15913;SDS011;8055;51.930;8.840;2023-04-24T02:57:30;1.58;;;0.63;;
15913;SDS011;8055;51.930;8.840;2023-04-24T02:59:55;0.70;;;0.70;;
15913;SDS011;8055;51.930;8.840;2023-04-24T03:02:21;1.35;;;0.80;;
15913;SDS011;8055;51.930;8.840;2023-04-24T03:04:46;0.60;;;0.60;;
15913;SDS011;8055;51.930;8.840;2023-04-24T03:07:13;0.73;;;0.73;;
15913;SDS011;8055;51.930;8.840;2023-04-24T03:09:39;0.77;;;0.77;;
15913;SDS011;8055;51.930;8.840;2023-04-24T03:12:05;0.65;;;0.60;;
15913;SDS011;8055;51.930;8.840;2023-04-24T03:14:31;2.47;;;1.15;;
15913;SDS011;8055;51.930;8.840;2023-04-24T03:16:56;0.93;;;0.88;;
15913;SDS011;8055;51.930;8.840;2023-04-24T03:19:22;1.45;;;0.80;;
15913;SDS011;8055;51.930;8.840;2023-04-24T03:21:47;0.57;;;0.57;;
15913;SDS011;8055;51.930;8.840;2023-04-24T03:24:13;0.80;;;0.80;;
15913;SDS011;8055;51.930;8.840;2023-04-24T03:26:38;2.08;;;0.70;;
15913;SDS011;8055;51.930;8.840;2023-04-24T03:29:04;0.77;;;0.75;;
15913;SDS011;8055;51.930;8.840;2023-04-24T03:31:29;1.40;;;0.80;;
15913;SDS011;8055;51.930;8.840;2023-04-24T03:33:55;0.85;;;0.68;;
15913;SDS011;8055;51.930;8.840;2023-04-24T03:36:20;0.85;;;0.70;;
15913;SDS011;8055;51.930;8.840;2023-04-24T03:38:46;2.35;;;0.82;;
15913;SDS011;8055;51.930;8.840;2023-04-24T03:41:11;2.05;;;0.90;;
15913;SDS011;8055;51.930;8.840;2023-04-24T03:43:37;0.75;;;0.70;;
15913;SDS011;8055;51.930;8.840;2023-04-24T03:46:03;0.60;;;0.60;;
15913;SDS011;8055;51.930;8.840;2023-04-24T03:48:29;0.77;;;0.70;;
15913;SDS011;8055;51.930;8.840;2023-04-24T03:50:54;0.68;;;0.68;;
15913;SDS011;8055;51.930;8.840;2023-04-24T03:53:19;1.27;;;1.00;;
15913;SDS011;8055;51.930;8.840;2023-04-24T03:55:45;1.10;;;0.93;;
15913;SDS011;8055;51.930;8.840;2023-04-24T03:58:11;2.63;;;1.00;;
15913;SDS011;8055;51.930;8.840;2023-04-24T04:00:37;3.03;;;0.90;;
15913;SDS011;8055;51.930;8.840;2023-04-24T04:03:03;1.58;;;1.25;;
15913;SDS011;8055;51.930;8.840;2023-04-24T04:05:28;1.70;;;1.60;;
15913;SDS011;8055;51.930;8.840;2023-04-24T04:07:54;3.75;;;1.60;;
15913;SDS011;8055;51.930;8.840;2023-04-24T04:10:20;1.83;;;1.55;;
15913;SDS011;8055;51.930;8.840;2023-04-24T04:12:46;1.70;;;1.48;;
15913;SDS011;8055;51.930;8.840;2023-04-24T04:15:11;3.15;;;1.90;;
15913;SDS011;8055;51.930;8.840;2023-04-24T04:17:37;1.90;;;1.80;;
15913;SDS011;8055;51.930;8.840;2023-04-24T04:20:03;2.22;;;2.00;;
15913;SDS011;8055;51.930;8.840;2023-04-24T04:22:33;2.50;;;2.05;;
15913;SDS011;8055;51.930;8.840;2023-04-24T04:24:59;4.25;;;2.47;;
15913;SDS011;8055;51.930;8.840;2023-04-24T04:27:24;4.40;;;1.95;;
15913;SDS011;8055;51.930;8.840;2023-04-24T04:29:50;5.50;;;2.40;;
15913;SDS011;8055;51.930;8.840;2023-04-24T04:32:15;6.65;;;2.40;;
15913;SDS011;8055;51.930;8.840;2023-04-24T04:34:41;3.55;;;2.33;;
15913;SDS011;8055;51.930;8.840;2023-04-24T04:37:06;2.42;;;2.00;;
15913;SDS011;8055;51.930;8.840;2023-04-24T04:39:32;2.35;;;2.00;;
15913;SDS011;8055;51.930;8.840;2023-04-24T04:41:57;3.95;;;2.22;;
15913;SDS011;8055;51.930;8.840;2023-04-24T04:44:23;2.15;;;1.80;;
15913;SDS011;8055;51.930;8.840;2023-04-24T04:46:49;3.47;;;1.88;;
15913;SDS011;8055;51.930;8.840;2023-04-24T04:49:15;2.08;;;1.88;;
15913;SDS011;8055;51.930;8.840;2023-04-24T04:51:41;3.10;;;2.00;;
15913;SDS011;8055;51.930;8.840;2023-04-24T04:54:07;2.33;;;1.60;;
15913;SDS011;8055;51.930;8.840;2023-04-24T04:56:32;2.72;;;1.80;;
15913;SDS011;8055;51.930;8.840;2023-04-24T04:58:58;2.85;;;1.92;;
15913;SDS011;8055;51.930;8.840;2023-04-24T05:01:24;2.50;;;1.88;;
15913;SDS011;8055;51.930;8.840;2023-04-24T05:03:50;3.65;;;1.70;;
15913;SDS011;8055;51.930;8.840;2023-04-24T05:06:15;2.30;;;1.60;;
15913;SDS011;8055;51.930;8.840;2023-04-24T05:08:41;1.95;;;1.35;;
15913;SDS011;8055;51.930;8.840;2023-04-24T05:11:06;2.55;;;1.60;;
15913;SDS011;8055;51.930;8.840;2023-04-24T05:13:32;2.90;;;1.70;;
15913;SDS011;8055;51.930;8.840;2023-04-24T05:15:57;2.35;;;1.70;;
15913;SDS011;8055;51.930;8.840;2023-04-24T05:18:23;4.55;;;2.78;;
15913;SDS011;8055;51.930;8.840;2023-04-24T05:20:49;4.63;;;4.05;;
15913;SDS011;8055;51.930;8.840;2023-04-24T05:23:14;7.35;;;5.78;;
15913;SDS011;8055;51.930;8.840;2023-04-24T05:25:40;8.48;;;6.65;;
15913;SDS011;8055;51.930;8.840;2023-04-24T05:28:06;11.48;;;7.80;;
15913;SDS011;8055;51.930;8.840;2023-04-24T05:30:32;9.93;;;7.78;;
15913;SDS011;8055;51.930;8.840;2023-04-24T05:32:57;13.77;;;8.80;;
15913;SDS011;8055;51.930;8.840;2023-04-24T05:35:22;11.40;;;8.00;;
15913;SDS011;8055;51.930;8.840;2023-04-24T05:37:48;14.07;;;9.45;;
15913;SDS011;8055;51.930;8.840;2023-04-24T05:40:13;10.00;;;8.48;;
15913;SDS011;8055;51.930;8.840;2023-04-24T05:42:39;11.70;;;9.20;;
15913;SDS011;8055;51.930;8.840;2023-04-24T05:45:05;13.00;;;10.30;;
15913;SDS011;8055;51.930;8.840;2023-04-24T05:47:30;11.73;;;9.70;;
15913;SDS011;8055;51.930;8.840;2023-04-24T05:49:56;14.02;;;10.27;;
15913;SDS011;8055;51.930;8.840;2023-04-24T05:52:21;13.25;;;9.93;;
15913;SDS011;8055;51.930;8.840;2023-04-24T05:54:47;12.73;;;9.98;;
15913;SDS011;8055;51.930;8.840;2023-04-24T05:57:13;12.25;;;9.40;;
15913;SDS011;8055;51.930;8.840;2023-04-24T05:59:39;15.52;;;10.63;;
15913;SDS011;8055;51.930;8.840;2023-04-24T06:02:05;12.10;;;9.80;;
15913;SDS011;8055;51.930;8.840;2023-04-24T06:04:31;15.88;;;10.45;;
15913;SDS011;8055;51.930;8.840;2023-04-24T06:06:57;13.00;;;10.75;;
15913;SDS011;8055;51.930;8.840;2023-04-24T06:09:22;12.85;;;9.85;;
15913;SDS011;8055;51.930;8.840;2023-04-24T06:11:48;12.30;;;9.80;;
15913;SDS011;8055;51.930;8.840;2023-04-24T06:14:15;11.82;;;9.43;;
15913;SDS011;8055;51.930;8.840;2023-04-24T06:16:41;12.02;;;9.80;;
15913;SDS011;8055;51.930;8.840;2023-04-24T06:19:07;10.45;;;8.93;;
15913;SDS011;8055;51.930;8.840;2023-04-24T06:21:33;11.70;;;9.18;;
15913;SDS011;8055;51.930;8.840;2023-04-24T06:23:58;11.60;;;8.77;;
15913;SDS011;8055;51.930;8.840;2023-04-24T06:26:24;12.25;;;9.73;;
15913;SDS011;8055;51.930;8.840;2023-04-24T06:28:52;11.05;;;8.93;;
15913;SDS011;8055;51.930;8.840;2023-04-24T06:31:19;10.50;;;9.02;;
15913;SDS011;8055;51.930;8.840;2023-04-24T06:33:45;13.38;;;9.27;;
15913;SDS011;8055;51.930;8.840;2023-04-24T06:36:11;12.35;;;9.02;;
15913;SDS011;8055;51.930;8.840;2023-04-24T06:38:37;13.07;;;9.23;;
15913;SDS011;8055;51.930;8.840;2023-04-24T06:41:03;11.70;;;9.30;;
15913;SDS011;8055;51.930;8.840;2023-04-24T06:43:30;12.65;;;9.20;;
15913;SDS011;8055;51.930;8.840;2023-04-24T06:45:57;11.75;;;9.55;;
15913;SDS011;8055;51.930;8.840;2023-04-24T06:48:23;11.80;;;8.50;;
15913;SDS011;8055;51.930;8.840;2023-04-24T06:50:49;12.85;;;8.63;;
15913;SDS011;8055;51.930;8.840;2023-04-24T06:53:14;10.60;;;9.38;;
15913;SDS011;8055;51.930;8.840;2023-04-24T06:55:40;10.77;;;8.50;;
15913;SDS011;8055;51.930;8.840;2023-04-24T06:58:05;13.93;;;9.25;;
15913;SDS011;8055;51.930;8.840;2023-04-24T07:00:31;15.02;;;9.50;;
15913;SDS011;8055;51.930;8.840;2023-04-24T07:02:57;12.30;;;9.05;;
15913;SDS011;8055;51.930;8.840;2023-04-24T07:05:22;13.45;;;9.27;;
15913;SDS011;8055;51.930;8.840;2023-04-24T07:07:48;11.80;;;9.02;;
15913;SDS011;8055;51.930;8.840;2023-04-24T07:10:14;10.82;;;8.70;;
15913;SDS011;8055;51.930;8.840;2023-04-24T07:12:40;10.55;;;7.75;;
15913;SDS011;8055;51.930;8.840;2023-04-24T07:15:06;13.88;;;8.20;;
15913;SDS011;8055;51.930;8.840;2023-04-24T07:17:33;10.07;;;7.97;;
15913;SDS011;8055;51.930;8.840;2023-04-24T07:20:00;11.07;;;8.52;;
15913;SDS011;8055;51.930;8.840;2023-04-24T07:22:25;12.15;;;8.30;;
15913;SDS011;8055;51.930;8.840;2023-04-24T07:24:51;9.68;;;8.18;;
15913;SDS011;8055;51.930;8.840;2023-04-24T07:27:16;10.57;;;7.88;;
15913;SDS011;8055;51.930;8.840;2023-04-24T07:29:42;10.60;;;7.35;;
15913;SDS011;8055;51.930;8.840;2023-04-24T07:32:08;11.90;;;7.90;;
15913;SDS011;8055;51.930;8.840;2023-04-24T07:34:34;10.30;;;7.65;;
15913;SDS011;8055;51.930;8.840;2023-04-24T07:36:59;8.75;;;6.55;;
15913;SDS011;8055;51.930;8.840;2023-04-24T07:39:25;9.27;;;7.38;;
15913;SDS011;8055;51.930;8.840;2023-04-24T07:41:51;7.50;;;6.43;;
15913;SDS011;8055;51.930;8.840;2023-04-24T07:44:16;7.07;;;5.82;;
15913;SDS011;8055;51.930;8.840;2023-04-24T07:46:42;7.90;;;6.20;;
15913;SDS011;8055;51.930;8.840;2023-04-24T07:49:07;7.93;;;5.53;;
15913;SDS011;8055;51.930;8.840;2023-04-24T07:51:33;8.23;;;6.40;;
15913;SDS011;8055;51.930;8.840;2023-04-24T07:54:03;7.85;;;6.72;;
15913;SDS011;8055;51.930;8.840;2023-04-24T07:56:29;8.73;;;5.72;;
15913;SDS011;8055;51.930;8.840;2023-04-24T07:58:56;8.68;;;6.13;;
15913;SDS011;8055;51.930;8.840;2023-04-24T08:01:21;7.95;;;5.95;;
15913;SDS011;8055;51.930;8.840;2023-04-24T08:03:46;8.38;;;5.97;;
15913;SDS011;8055;51.930;8.840;2023-04-24T08:06:12;8.65;;;6.93;;
15913;SDS011;8055;51.930;8.840;2023-04-24T08:08:37;9.52;;;6.68;;
15913;SDS011;8055;51.930;8.840;2023-04-24T08:11:03;8.13;;;6.00;;
15913;SDS011;8055;51.930;8.840;2023-04-24T08:13:28;8.60;;;6.07;;
15913;SDS011;8055;51.930;8.840;2023-04-24T08:15:54;8.27;;;5.90;;
15913;SDS011;8055;51.930;8.840;2023-04-24T08:18:21;7.18;;;5.72;;
15913;SDS011;8055;51.930;8.840;2023-04-24T08:20:47;7.30;;;5.32;;
15913;SDS011;8055;51.930;8.840;2023-04-24T08:23:12;6.30;;;4.85;;
15913;SDS011;8055;51.930;8.840;2023-04-24T08:25:38;6.30;;;4.72;;
15913;SDS011;8055;51.930;8.840;2023-04-24T08:28:05;7.13;;;4.38;;
15913;SDS011;8055;51.930;8.840;2023-04-24T08:30:31;4.63;;;4.22;;
15913;SDS011;8055;51.930;8.840;2023-04-24T08:32:57;6.45;;;4.55;;
15913;SDS011;8055;51.930;8.840;2023-04-24T08:35:23;6.60;;;4.65;;
15913;SDS011;8055;51.930;8.840;2023-04-24T08:37:48;7.03;;;5.07;;
15913;SDS011;8055;51.930;8.840;2023-04-24T08:40:15;6.18;;;5.00;;
15913;SDS011;8055;51.930;8.840;2023-04-24T08:42:41;4.82;;;3.90;;
15913;SDS011;8055;51.930;8.840;2023-04-24T08:45:09;3.85;;;3.50;;
15913;SDS011;8055;51.930;8.840;2023-04-24T08:47:37;6.72;;;4.07;;
15913;SDS011;8055;51.930;8.840;2023-04-24T08:50:07;7.15;;;3.50;;
15913;SDS011;8055;51.930;8.840;2023-04-24T08:52:35;4.38;;;3.53;;
15913;SDS011;8055;51.930;8.840;2023-04-24T08:55:01;3.97;;;3.58;;
15913;SDS011;8055;51.930;8.840;2023-04-24T08:57:26;4.50;;;3.65;;
15913;SDS011;8055;51.930;8.840;2023-04-24T08:59:53;5.15;;;3.50;;
15913;SDS011;8055;51.930;8.840;2023-04-24T09:02:19;3.92;;;3.42;;
15913;SDS011;8055;51.930;8.840;2023-04-24T09:04:46;4.93;;;3.97;;
15913;SDS011;8055;51.930;8.840;2023-04-24T09:07:12;4.57;;;3.67;;
15913;SDS011;8055;51.930;8.840;2023-04-24T09:09:41;3.97;;;3.40;;
15913;SDS011;8055;51.930;8.840;2023-04-24T09:12:07;4.60;;;4.10;;
15913;SDS011;8055;51.930;8.840;2023-04-24T09:14:35;4.75;;;3.28;;
15913;SDS011;8055;51.930;8.840;2023-04-24T09:17:03;5.00;;;3.40;;
15913;SDS011;8055;51.930;8.840;2023-04-24T09:19:29;4.88;;;3.80;;
15913;SDS011;8055;51.930;8.840;2023-04-24T09:21:54;6.10;;;3.75;;
15913;SDS011;8055;51.930;8.840;2023-04-24T09:24:20;4.45;;;3.40;;
15913;SDS011;8055;51.930;8.840;2023-04-24T09:26:55;3.97;;;3.05;;
15913;SDS011;8055;51.930;8.840;2023-04-24T09:29:24;3.35;;;3.03;;
15913;SDS011;8055;51.930;8.840;2023-04-24T09:31:50;6.03;;;2.90;;
15913;SDS011;8055;51.930;8.840;2023-04-24T09:34:19;3.08;;;2.78;;
15913;SDS011;8055;51.930;8.840;2023-04-24T09:36:50;5.03;;;2.80;;
15913;SDS011;8055;51.930;8.840;2023-04-24T09:39:16;2.83;;;2.38;;
15913;SDS011;8055;51.930;8.840;2023-04-24T09:41:49;3.72;;;2.70;;
15913;SDS011;8055;51.930;8.840;2023-04-24T09:44:24;3.28;;;2.50;;
15913;SDS011;8055;51.930;8.840;2023-04-24T09:46:58;2.78;;;2.30;;
15913;SDS011;8055;51.930;8.840;2023-04-24T09:49:28;3.15;;;2.60;;
15913;SDS011;8055;51.930;8.840;2023-04-24T09:54:39;4.65;;;2.50;;
15913;SDS011;8055;51.930;8.840;2023-04-24T09:57:07;4.38;;;2.13;;
15913;SDS011;8055;51.930;8.840;2023-04-24T09:59:34;3.08;;;2.22;;
15913;SDS011;8055;51.930;8.840;2023-04-24T10:02:00;2.03;;;1.85;;
15913;SDS011;8055;51.930;8.840;2023-04-24T10:04:26;2.17;;;1.80;;
15913;SDS011;8055;51.930;8.840;2023-04-24T10:06:53;1.52;;;1.42;;
15913;SDS011;8055;51.930;8.840;2023-04-24T10:09:21;1.30;;;1.20;;
15913;SDS011;8055;51.930;8.840;2023-04-24T10:11:48;2.72;;;1.20;;
15913;SDS011;8055;51.930;8.840;2023-04-24T10:14:16;1.75;;;1.13;;
15913;SDS011;8055;51.930;8.840;2023-04-24T10:16:43;1.35;;;1.25;;
15913;SDS011;8055;51.930;8.840;2023-04-24T10:19:12;2.35;;;1.10;;
15913;SDS011;8055;51.930;8.840;2023-04-24T10:21:39;1.40;;;1.10;;
15913;SDS011;8055;51.930;8.840;2023-04-24T10:24:14;0.77;;;0.77;;
15913;SDS011;8055;51.930;8.840;2023-04-24T10:26:41;1.08;;;0.98;;
15913;SDS011;8055;51.930;8.840;2023-04-24T10:29:07;1.50;;;0.80;;
15913;SDS011;8055;51.930;8.840;2023-04-24T10:31:37;2.03;;;0.80;;
15913;SDS011;8055;51.930;8.840;2023-04-24T10:34:04;0.75;;;0.75;;
15913;SDS011;8055;51.930;8.840;2023-04-24T10:36:30;4.68;;;1.02;;
15913;SDS011;8055;51.930;8.840;2023-04-24T10:38:59;0.80;;;0.70;;
15913;SDS011;8055;51.930;8.840;2023-04-24T10:41:27;0.70;;;0.70;;
15913;SDS011;8055;51.930;8.840;2023-04-24T10:44:08;1.17;;;0.85;;
15913;SDS011;8055;51.930;8.840;2023-04-24T10:46:38;2.22;;;0.80;;
15913;SDS011;8055;51.930;8.840;2023-04-24T10:49:07;0.50;;;0.50;;
15913;SDS011;8055;51.930;8.840;2023-04-24T10:51:44;0.70;;;0.70;;
15913;SDS011;8055;51.930;8.840;2023-04-24T10:57:25;0.70;;;0.70;;
15913;SDS011;8055;51.930;8.840;2023-04-24T11:00:16;1.33;;;0.77;;
15913;SDS011;8055;51.930;8.840;2023-04-24T11:02:45;0.60;;;0.60;;
15913;SDS011;8055;51.930;8.840;2023-04-24T11:05:18;1.73;;;0.70;;
15913;SDS011;8055;51.930;8.840;2023-04-24T11:10:45;0.68;;;0.68;;
15913;SDS011;8055;51.930;8.840;2023-04-24T11:13:15;1.95;;;0.80;;
15913;SDS011;8055;51.930;8.840;2023-04-24T11:15:41;1.38;;;0.90;;
15913;SDS011;8055;51.930;8.840;2023-04-24T11:18:14;0.77;;;0.75;;
15913;SDS011;8055;51.930;8.840;2023-04-24T11:20:44;1.33;;;0.85;;
15913;SDS011;8055;51.930;8.840;2023-04-24T11:23:11;0.88;;;0.88;;
15913;SDS011;8055;51.930;8.840;2023-04-24T11:25:37;0.90;;;0.90;;
15913;SDS011;8055;51.930;8.840;2023-04-24T11:28:03;0.70;;;0.70;;
15913;SDS011;8055;51.930;8.840;2023-04-24T11:30:30;1.30;;;1.20;;
15913;SDS011;8055;51.930;8.840;2023-04-24T11:33:02;1.25;;;1.15;;
15913;SDS011;8055;51.930;8.840;2023-04-24T11:35:29;1.42;;;1.33;;
15913;SDS011;8055;51.930;8.840;2023-04-24T11:37:55;1.73;;;1.23;;
15913;SDS011;8055;51.930;8.840;2023-04-24T11:40:22;1.40;;;1.30;;
15913;SDS011;8055;51.930;8.840;2023-04-24T11:42:49;2.05;;;1.40;;
15913;SDS011;8055;51.930;8.840;2023-04-24T11:45:16;1.65;;;1.55;;
15913;SDS011;8055;51.930;8.840;2023-04-24T11:47:44;2.40;;;1.65;;
15913;SDS011;8055;51.930;8.840;2023-04-24T11:50:14;1.95;;;1.85;;
15913;SDS011;8055;51.930;8.840;2023-04-24T11:52:41;2.10;;;2.00;;
15913;SDS011;8055;51.930;8.840;2023-04-24T11:55:12;2.67;;;2.00;;
15913;SDS011;8055;51.930;8.840;2023-04-24T11:57:52;1.80;;;1.70;;
15913;SDS011;8055;51.930;8.840;2023-04-24T12:00:39;1.70;;;1.60;;
15913;SDS011;8055;51.930;8.840;2023-04-24T12:03:09;1.73;;;1.63;;
15913;SDS011;8055;51.930;8.840;2023-04-24T12:05:36;1.70;;;1.60;;
15913;SDS011;8055;51.930;8.840;2023-04-24T12:08:02;1.70;;;1.60;;
15913;SDS011;8055;51.930;8.840;2023-04-24T12:10:28;1.63;;;1.52;;
15913;SDS011;8055;51.930;8.840;2023-04-24T12:12:56;1.70;;;1.60;;
15913;SDS011;8055;51.930;8.840;2023-04-24T12:15:22;4.20;;;1.90;;
15913;SDS011;8055;51.930;8.840;2023-04-24T12:17:50;2.70;;;2.50;;
15913;SDS011;8055;51.930;8.840;2023-04-24T12:20:17;2.30;;;2.10;;
15913;SDS011;8055;51.930;8.840;2023-04-24T12:25:22;4.05;;;2.30;;
15913;SDS011;8055;51.930;8.840;2023-04-24T12:28:22;2.50;;;2.30;;
15913;SDS011;8055;51.930;8.840;2023-04-24T12:30:41;2.87;;;2.67;;
15913;SDS011;8055;51.930;8.840;2023-04-24T12:33:09;2.88;;;2.28;;
15913;SDS011;8055;51.930;8.840;2023-04-24T12:35:35;4.68;;;2.50;;
15913;SDS011;8055;51.930;8.840;2023-04-24T12:38:07;2.40;;;1.80;;
15913;SDS011;8055;51.930;8.840;2023-04-24T12:40:33;4.13;;;2.00;;
15913;SDS011;8055;51.930;8.840;2023-04-24T12:42:59;2.28;;;1.67;;
15913;SDS011;8055;51.930;8.840;2023-04-24T12:45:24;4.00;;;1.58;;
15913;SDS011;8055;51.930;8.840;2023-04-24T12:47:50;2.20;;;1.90;;
15913;SDS011;8055;51.930;8.840;2023-04-24T12:50:15;2.90;;;2.03;;
15913;SDS011;8055;51.930;8.840;2023-04-24T12:52:41;3.35;;;2.00;;
15913;SDS011;8055;51.930;8.840;2023-04-24T12:55:08;2.83;;;2.35;;
15913;SDS011;8055;51.930;8.840;2023-04-24T12:57:34;3.65;;;2.55;;
15913;SDS011;8055;51.930;8.840;2023-04-24T13:00:01;4.65;;;2.78;;
15913;SDS011;8055;51.930;8.840;2023-04-24T13:02:27;4.68;;;2.80;;
15913;SDS011;8055;51.930;8.840;2023-04-24T13:04:55;3.88;;;3.03;;
15913;SDS011;8055;51.930;8.840;2023-04-24T13:07:22;5.25;;;3.20;;
15913;SDS011;8055;51.930;8.840;2023-04-24T13:09:48;8.07;;;3.15;;
15913;SDS011;8055;51.930;8.840;2023-04-24T13:12:14;4.38;;;3.03;;
15913;SDS011;8055;51.930;8.840;2023-04-24T13:14:40;5.28;;;3.70;;
15913;SDS011;8055;51.930;8.840;2023-04-24T13:17:06;4.60;;;3.90;;
15913;SDS011;8055;51.930;8.840;2023-04-24T13:19:36;6.38;;;4.47;;
15913;SDS011;8055;51.930;8.840;2023-04-24T13:22:03;7.03;;;5.00;;
15913;SDS011;8055;51.930;8.840;2023-04-24T13:24:29;6.90;;;4.15;;
15913;SDS011;8055;51.930;8.840;2023-04-24T13:26:56;6.50;;;3.85;;
15913;SDS011;8055;51.930;8.840;2023-04-24T13:29:22;6.13;;;4.22;;
15913;SDS011;8055;51.930;8.840;2023-04-24T13:31:49;5.97;;;3.97;;
15913;SDS011;8055;51.930;8.840;2023-04-24T13:34:16;6.63;;;3.95;;
15913;SDS011;8055;51.930;8.840;2023-04-24T13:36:42;5.20;;;3.53;;
15913;SDS011;8055;51.930;8.840;2023-04-24T13:39:07;5.72;;;3.83;;
15913;SDS011;8055;51.930;8.840;2023-04-24T13:41:33;4.60;;;3.47;;
15913;SDS011;8055;51.930;8.840;2023-04-24T13:43:59;7.70;;;4.53;;
15913;SDS011;8055;51.930;8.840;2023-04-24T13:46:25;8.98;;;4.68;;
15913;SDS011;8055;51.930;8.840;2023-04-24T13:48:50;10.77;;;4.72;;
15913;SDS011;8055;51.930;8.840;2023-04-24T13:51:16;8.20;;;5.55;;
15913;SDS011;8055;51.930;8.840;2023-04-24T13:53:41;13.52;;;6.07;;
15913;SDS011;8055;51.930;8.840;2023-04-24T13:56:07;8.60;;;5.88;;
15913;SDS011;8055;51.930;8.840;2023-04-24T13:58:33;10.43;;;6.05;;
15913;SDS011;8055;51.930;8.840;2023-04-24T14:00:58;14.30;;;6.90;;
15913;SDS011;8055;51.930;8.840;2023-04-24T14:03:24;13.55;;;7.38;;
15913;SDS011;8055;51.930;8.840;2023-04-24T14:05:49;12.40;;;6.97;;
15913;SDS011;8055;51.930;8.840;2023-04-24T14:08:15;13.82;;;8.02;;
15913;SDS011;8055;51.930;8.840;2023-04-24T14:10:40;13.35;;;7.45;;
15913;SDS011;8055;51.930;8.840;2023-04-24T14:13:06;14.35;;;8.40;;
15913;SDS011;8055;51.930;8.840;2023-04-24T14:15:31;16.75;;;8.88;;
15913;SDS011;8055;51.930;8.840;2023-04-24T14:17:56;18.42;;;10.30;;
15913;SDS011;8055;51.930;8.840;2023-04-24T14:20:22;18.58;;;11.90;;
15913;SDS011;8055;51.930;8.840;2023-04-24T14:22:48;19.58;;;12.30;;
15913;SDS011;8055;51.930;8.840;2023-04-24T14:25:13;16.77;;;10.50;;
15913;SDS011;8055;51.930;8.840;2023-04-24T14:27:38;16.83;;;11.82;;
15913;SDS011;8055;51.930;8.840;2023-04-24T14:30:05;13.02;;;9.05;;
15913;SDS011;8055;51.930;8.840;2023-04-24T14:32:31;21.35;;;10.73;;
15913;SDS011;8055;51.930;8.840;2023-04-24T14:34:59;15.95;;;11.68;;
15913;SDS011;8055;51.930;8.840;2023-04-24T14:37:24;14.82;;;9.32;;
15913;SDS011;8055;51.930;8.840;2023-04-24T14:39:50;16.83;;;9.48;;
15913;SDS011;8055;51.930;8.840;2023-04-24T14:42:15;19.88;;;9.05;;
15913;SDS011;8055;51.930;8.840;2023-04-24T14:44:42;16.95;;;8.85;;
15913;SDS011;8055;51.930;8.840;2023-04-24T14:47:07;18.63;;;8.73;;
15913;SDS011;8055;51.930;8.840;2023-04-24T14:49:33;19.90;;;9.55;;
15913;SDS011;8055;51.930;8.840;2023-04-24T14:51:58;19.92;;;9.75;;
15913;SDS011;8055;51.930;8.840;2023-04-24T14:54:24;17.75;;;8.98;;
15913;SDS011;8055;51.930;8.840;2023-04-24T14:56:50;12.48;;;7.80;;
15913;SDS011;8055;51.930;8.840;2023-04-24T14:59:15;20.48;;;7.88;;
15913;SDS011;8055;51.930;8.840;2023-04-24T15:01:41;16.15;;;7.32;;
15913;SDS011;8055;51.930;8.840;2023-04-24T15:04:06;18.35;;;8.05;;